Atiramapattinam, India

1:54 AM IST on July 26, 2016 (GMT +0530)
Tiruchirappalli | | Change Station

Elev 289 ft 10.77 °N, 78.71 °E | Updated 24 minutes ago

Mostly Cloudy
Mostly Cloudy
75 °F
Feels Like 75 °F
N
6
Wind Variable Wind from WSW

Today
High -- | Low -- °F
--% Chance of Precip.
Yesterday
High -- | Low -- °F
Precip. -- in
Pressure 29.71 in
Visibility 2.5 miles
Clouds Scattered Clouds 1600 ft
Mostly Cloudy 8000 ft
Dew Point 73 °F
Humidity 94%
Rainfall 0.00 in
Snow Depth Not available.
6:00 AM 6:37 PM
Waning Gibbous, 63% visible
METAR VOTR 252000Z 24005KT 4000 BR SCT016 BKN080 24/23 Q1006 NOSIG
Pressure 29.71 in
Visibility 2.5 miles
Clouds Scattered Clouds 1600 ft
Mostly Cloudy 8000 ft
Dew Point 73 °F
Humidity 94%
Rainfall 0.00 in
Snow Depth Not available.
6:00 AM 6:37 PM
Waning Gibbous, 63% visible
METAR VOTR 252000Z 24005KT 4000 BR SCT016 BKN080 24/23 Q1006 NOSIG

10-Day Weather Forecast

No radar image for this location.
×

Almanac

Astronomy

Jul. 26, 2016 Rise Set
Actual Time
Civil Twilight
Nautical Twilight
Astronomical Twilight
Moon
Length of Visible Light
Length of Day
Tomorrow will be .
, % of the Moon is Illuminated

Today's Extremes

Country Highs Country Lows

Community

WunderPhotos

Upload Photos

1,927,415 photos uploaded!

WunderBlog® & News

Nearby

Air Quality

  Air Quality AQ Index Pollutant
Not available.

Snow Depth

Station Depth Elevation

Earthquake Activity

City Distance Mag. Time & Date
Minimum magnitude displayed is 2.5.

Coastal Water Temperatures

Place Temperature

Stations

Nearby Weather Stations

Station Location Temp. Windchill Dew Point Humidity Wind Precip. Elev Updated Type